createdAt,value
2022-11-03T00:01:08.960Z,6.43
2022-11-03T00:03:36.032Z,9.45
2022-11-03T00:06:06.408Z,6.93
2022-11-03T00:08:33.579Z,7.75
2022-11-03T00:11:00.664Z,5.68
2022-11-03T00:13:27.735Z,7.75
2022-11-03T00:15:54.818Z,7.47
2022-11-03T00:18:21.890Z,7.00
2022-11-03T00:20:48.989Z,6.90
2022-11-03T00:23:16.082Z,6.13
2022-11-03T00:25:43.156Z,6.32
2022-11-03T00:28:10.313Z,8.35
2022-11-03T00:30:37.388Z,7.07
2022-11-03T00:33:04.934Z,8.93
2022-11-03T00:35:32.294Z,6.40
2022-11-03T00:37:59.437Z,5.95
2022-11-03T00:40:26.528Z,7.30
2022-11-03T00:42:53.604Z,5.80
2022-11-03T00:45:21.489Z,6.18
2022-11-03T00:48:07.494Z,8.85
2022-11-03T00:50:34.596Z,5.65
2022-11-03T00:53:01.787Z,7.93
2022-11-03T00:55:28.895Z,6.15
2022-11-03T00:57:55.977Z,6.82
2022-11-03T01:00:23.097Z,6.50
2022-11-03T01:02:50.182Z,6.90
2022-11-03T01:05:35.976Z,8.50
2022-11-03T01:08:05.075Z,6.45
2022-11-03T01:10:32.197Z,5.80
2022-11-03T01:12:59.276Z,6.82
2022-11-03T01:15:26.352Z,8.02
2022-11-03T01:17:53.420Z,5.43
2022-11-03T01:20:20.484Z,5.55
2022-11-03T01:22:47.549Z,9.20
2022-11-03T01:25:14.708Z,6.43
2022-11-03T01:27:41.790Z,5.63
2022-11-03T01:30:08.911Z,7.07
2022-11-03T01:32:36.013Z,6.30
2022-11-03T01:35:03.073Z,6.82
2022-11-03T01:37:30.211Z,5.60
2022-11-03T01:39:57.314Z,5.50
2022-11-03T01:42:24.413Z,5.93
2022-11-03T01:44:51.502Z,6.80
2022-11-03T01:47:18.627Z,8.32
2022-11-03T01:49:45.741Z,5.47
2022-11-03T01:52:12.853Z,5.68
2022-11-03T01:54:40.000Z,6.03
2022-11-03T01:57:07.073Z,6.38
2022-11-03T01:59:34.189Z,4.93
2022-11-03T02:02:01.368Z,6.65
2022-11-03T02:04:28.628Z,5.97
2022-11-03T02:06:55.719Z,6.22
2022-11-03T02:09:22.854Z,5.50
2022-11-03T02:12:08.335Z,6.32
2022-11-03T02:14:35.398Z,4.82
2022-11-03T02:17:04.050Z,5.95
2022-11-03T02:19:31.169Z,7.07
2022-11-03T02:21:58.249Z,5.07
2022-11-03T02:24:25.457Z,7.55
2022-11-03T02:26:52.532Z,5.30
2022-11-03T02:29:19.596Z,5.68
2022-11-03T02:31:46.702Z,5.93
2022-11-03T02:34:13.791Z,5.25
2022-11-03T02:36:41.509Z,5.07
2022-11-03T02:39:08.590Z,6.13
2022-11-03T02:41:35.654Z,5.18
2022-11-03T02:44:02.804Z,4.35
2022-11-03T02:46:30.009Z,4.60
2022-11-03T02:48:57.301Z,5.13
2022-11-03T02:51:24.377Z,5.32
2022-11-03T02:53:51.486Z,4.63
2022-11-03T02:56:18.592Z,4.78
2022-11-03T02:58:45.691Z,5.55
2022-11-03T03:01:18.864Z,4.95
2022-11-03T03:03:48.169Z,6.35
2022-11-03T03:06:15.349Z,4.13
2022-11-03T03:08:42.446Z,5.43
2022-11-03T03:11:09.535Z,6.47
2022-11-03T03:13:36.671Z,5.40
2022-11-03T03:16:03.741Z,4.95
2022-11-03T03:18:30.834Z,5.13
2022-11-03T03:20:57.936Z,5.30
2022-11-03T03:23:25.060Z,4.18
2022-11-03T03:25:52.125Z,4.70
2022-11-03T03:28:19.188Z,5.80
2022-11-03T03:30:46.716Z,5.65
2022-11-03T03:33:13.983Z,4.57
2022-11-03T03:35:41.134Z,4.05
2022-11-03T03:38:08.541Z,4.30
2022-11-03T03:40:35.847Z,4.45
2022-11-03T03:43:02.986Z,4.63
2022-11-03T03:45:30.076Z,4.32
2022-11-03T03:48:04.524Z,7.39
2022-11-03T03:50:31.706Z,4.80
2022-11-03T03:52:58.927Z,4.03
2022-11-03T03:55:26.014Z,5.07
2022-11-03T03:57:55.361Z,5.00
2022-11-03T04:00:25.569Z,5.75
2022-11-03T04:02:52.698Z,5.60
2022-11-03T04:05:19.816Z,4.72
2022-11-03T04:07:47.030Z,6.90
2022-11-03T04:10:14.141Z,4.80
2022-11-03T04:13:00.094Z,3.85
2022-11-03T04:15:45.632Z,4.47
2022-11-03T04:18:31.740Z,5.28
2022-11-03T04:23:44.770Z,4.30
2022-11-03T04:26:11.848Z,5.28
2022-11-03T04:28:39.066Z,4.80
2022-11-03T04:31:06.126Z,4.30
2022-11-03T04:33:33.193Z,3.97
2022-11-03T04:36:00.385Z,5.05
2022-11-03T04:38:27.475Z,4.80
2022-11-03T04:40:55.281Z,4.22
2022-11-03T04:43:22.541Z,4.82
2022-11-03T04:45:49.618Z,3.85
2022-11-03T04:48:16.736Z,4.53
2022-11-03T04:50:46.710Z,6.93
2022-11-03T04:53:14.171Z,4.97
2022-11-03T04:55:41.295Z,4.63
2022-11-03T04:58:08.399Z,3.67
2022-11-03T05:00:35.560Z,3.75
2022-11-03T05:03:02.733Z,3.55
2022-11-03T05:05:29.995Z,4.22
2022-11-03T05:07:57.081Z,4.05
2022-11-03T05:10:24.186Z,6.18
2022-11-03T05:12:51.268Z,5.13
2022-11-03T05:15:18.335Z,4.85
2022-11-03T05:17:45.402Z,5.05
2022-11-03T05:20:12.516Z,5.20
2022-11-03T05:22:39.599Z,5.10
2022-11-03T05:25:06.684Z,4.85
2022-11-03T05:27:33.788Z,5.40
2022-11-03T05:30:01.471Z,3.80
2022-11-03T05:32:28.648Z,3.88
2022-11-03T05:34:55.950Z,4.80
2022-11-03T05:37:26.335Z,3.78
2022-11-03T05:39:53.794Z,4.32
2022-11-03T05:42:21.005Z,4.43
2022-11-03T05:44:48.133Z,5.88
2022-11-03T05:47:15.208Z,4.95
2022-11-03T05:49:42.308Z,3.10
2022-11-03T05:52:09.390Z,4.10
2022-11-03T05:54:36.494Z,3.75
2022-11-03T05:57:03.568Z,3.72
2022-11-03T05:59:30.694Z,6.95
2022-11-03T06:04:34.558Z,4.70
2022-11-03T06:07:01.623Z,6.25
2022-11-03T06:09:28.707Z,4.80
2022-11-03T06:11:55.815Z,4.68
2022-11-03T06:14:24.316Z,3.70
2022-11-03T06:16:51.951Z,4.88
2022-11-03T06:19:19.611Z,4.97
2022-11-03T06:21:46.726Z,4.15
2022-11-03T06:24:13.851Z,4.68
2022-11-03T06:26:40.941Z,5.72
2022-11-03T06:29:08.002Z,3.95
2022-11-03T06:31:35.070Z,4.05
2022-11-03T06:34:02.144Z,5.25
2022-11-03T06:36:29.213Z,3.88
2022-11-03T06:38:56.313Z,3.70
2022-11-03T06:41:23.449Z,4.07
2022-11-03T06:43:50.529Z,4.88
2022-11-03T06:46:17.605Z,4.63
2022-11-03T06:48:44.675Z,5.40
2022-11-03T06:51:11.823Z,5.78
2022-11-03T06:53:38.910Z,5.15
2022-11-03T06:56:05.979Z,6.80
2022-11-03T06:58:33.074Z,7.28
2022-11-03T07:01:03.365Z,7.88
2022-11-03T07:03:33.198Z,8.30
2022-11-03T07:06:00.316Z,14.30
2022-11-03T07:08:27.470Z,15.52
2022-11-03T07:10:54.567Z,16.10
2022-11-03T07:13:21.664Z,12.35
2022-11-03T07:15:48.809Z,16.33
2022-11-03T07:18:15.905Z,10.57
2022-11-03T07:20:42.977Z,23.60
2022-11-03T07:23:10.062Z,26.02
2022-11-03T07:25:37.150Z,18.35
2022-11-03T07:28:05.020Z,20.55
2022-11-03T07:30:33.264Z,13.23
2022-11-03T07:33:00.359Z,20.02
2022-11-03T07:35:27.450Z,17.50
2022-11-03T07:37:54.545Z,18.13
2022-11-03T07:40:21.657Z,19.08
2022-11-03T07:42:48.763Z,25.90
2022-11-03T07:45:15.855Z,15.48
2022-11-03T07:47:42.930Z,23.05
2022-11-03T07:50:10.023Z,23.63
2022-11-03T07:52:37.165Z,17.67
2022-11-03T07:55:04.244Z,16.77
2022-11-03T07:57:31.426Z,16.65
2022-11-03T07:59:58.737Z,15.02
2022-11-03T08:02:25.884Z,21.17
2022-11-03T08:04:53.050Z,12.82
2022-11-03T08:07:20.142Z,16.25
2022-11-03T08:09:47.264Z,12.75
2022-11-03T08:12:14.336Z,11.75
2022-11-03T08:14:41.432Z,12.23
2022-11-03T08:17:08.543Z,10.85
2022-11-03T08:19:35.610Z,12.73
2022-11-03T08:22:02.705Z,10.65
2022-11-03T08:24:29.860Z,10.57
2022-11-03T08:26:57.025Z,10.60
2022-11-03T08:29:27.245Z,11.68
2022-11-03T08:31:54.450Z,9.52
2022-11-03T08:34:21.570Z,8.25
2022-11-03T08:36:48.638Z,10.60
2022-11-03T08:39:15.724Z,9.88
2022-11-03T08:41:42.816Z,12.40
2022-11-03T08:44:12.995Z,13.60
2022-11-03T08:46:40.100Z,8.60
2022-11-03T08:49:07.189Z,8.02
2022-11-03T08:51:34.269Z,10.18
2022-11-03T08:54:01.497Z,10.98
2022-11-03T08:56:29.134Z,15.52
2022-11-03T08:58:56.396Z,14.57
2022-11-03T09:01:23.518Z,14.45
2022-11-03T09:03:50.672Z,10.82
2022-11-03T09:06:17.864Z,10.70
2022-11-03T09:11:33.526Z,10.07
2022-11-03T09:14:00.722Z,7.72
2022-11-03T09:16:27.863Z,15.60
2022-11-03T09:18:54.962Z,14.52
2022-11-03T09:21:22.047Z,10.45
2022-11-03T09:23:49.159Z,15.48
2022-11-03T09:26:16.308Z,14.90
2022-11-03T09:28:43.443Z,19.23
2022-11-03T09:31:10.549Z,38.72
2022-11-03T09:33:37.691Z,35.38
2022-11-03T09:36:04.790Z,54.85
2022-11-03T09:38:31.865Z,44.97
2022-11-03T09:40:59.031Z,38.33
2022-11-03T09:43:26.115Z,35.88
2022-11-03T09:45:53.220Z,27.63
2022-11-03T09:48:20.358Z,27.58
2022-11-03T09:50:47.477Z,29.20
2022-11-03T09:53:15.852Z,23.25
2022-11-03T09:55:42.975Z,29.80
2022-11-03T09:58:10.042Z,23.77
2022-11-03T10:00:37.124Z,26.08
2022-11-03T10:03:05.326Z,28.48
2022-11-03T10:05:32.688Z,19.73
2022-11-03T10:07:59.834Z,20.63
2022-11-03T10:10:26.985Z,19.92
2022-11-03T10:12:54.162Z,22.70
2022-11-03T10:15:21.229Z,23.17
2022-11-03T10:17:50.462Z,21.25
2022-11-03T10:20:17.543Z,19.33
2022-11-03T10:22:44.654Z,23.75
2022-11-03T10:25:11.743Z,20.58
2022-11-03T10:27:38.860Z,22.63
2022-11-03T10:30:07.498Z,26.50
2022-11-03T10:32:35.126Z,20.02
2022-11-03T10:35:02.212Z,18.33
2022-11-03T10:37:29.497Z,15.43
2022-11-03T10:39:57.191Z,21.77
2022-11-03T10:42:24.341Z,22.00
2022-11-03T10:44:51.417Z,19.10
2022-11-03T10:47:18.512Z,24.25
2022-11-03T10:49:45.596Z,15.63
2022-11-03T10:52:12.666Z,20.42
2022-11-03T10:54:39.742Z,16.00
2022-11-03T10:57:06.902Z,16.33
2022-11-03T10:59:34.053Z,14.57
2022-11-03T11:02:01.376Z,19.20
2022-11-03T11:04:28.710Z,11.63
2022-11-03T11:06:55.946Z,23.58
2022-11-03T11:09:23.423Z,17.55
2022-11-03T11:11:50.497Z,17.35
2022-11-03T11:14:17.601Z,18.92
2022-11-03T11:16:44.722Z,18.15
2022-11-03T11:19:11.879Z,16.85
2022-11-03T11:21:38.957Z,17.13
2022-11-03T11:24:06.115Z,15.70
2022-11-03T11:26:33.226Z,12.20
2022-11-03T11:29:00.359Z,19.80
2022-11-03T11:31:27.590Z,14.27
2022-11-03T11:33:54.679Z,11.85
2022-11-03T11:36:21.822Z,17.70
2022-11-03T11:38:48.898Z,15.18
2022-11-03T11:41:15.992Z,17.65
2022-11-03T11:43:43.077Z,12.75
2022-11-03T11:46:10.214Z,15.27
2022-11-03T11:48:37.393Z,12.82
2022-11-03T11:51:04.455Z,15.07
2022-11-03T11:53:32.039Z,15.27
2022-11-03T11:55:59.284Z,21.38
2022-11-03T11:58:26.356Z,27.50
2022-11-03T12:00:53.595Z,32.13
2022-11-03T12:03:20.794Z,38.38
2022-11-03T12:05:47.935Z,54.30
2022-11-03T12:08:14.997Z,134.30
2022-11-03T12:10:42.068Z,120.25
2022-11-03T12:13:09.177Z,127.43
2022-11-03T12:15:36.274Z,120.07
2022-11-03T12:18:03.416Z,154.75
2022-11-03T12:20:30.600Z,159.98
2022-11-03T12:22:57.804Z,117.28
2022-11-03T12:25:24.893Z,127.13
2022-11-03T12:27:52.529Z,137.75
2022-11-03T12:30:19.794Z,159.30
2022-11-03T12:32:46.947Z,231.93
2022-11-03T12:35:14.071Z,278.02
2022-11-03T12:37:42.047Z,294.83
2022-11-03T12:40:09.424Z,269.67
2022-11-03T12:42:36.534Z,268.55
2022-11-03T12:45:03.696Z,206.93
2022-11-03T12:47:30.821Z,222.90
2022-11-03T12:49:57.898Z,233.43
2022-11-03T12:52:25.013Z,228.48
2022-11-03T12:54:52.128Z,195.27
2022-11-03T12:57:19.208Z,176.55
2022-11-03T12:59:46.894Z,191.35
2022-11-03T13:02:14.163Z,192.80
2022-11-03T13:04:41.340Z,164.77
2022-11-03T13:07:08.448Z,160.48
2022-11-03T13:09:36.155Z,166.50
2022-11-03T13:12:22.129Z,136.32
2022-11-03T13:14:49.247Z,170.15
2022-11-03T13:17:16.368Z,134.68
2022-11-03T13:19:43.549Z,132.10
2022-11-03T13:22:10.683Z,125.97
2022-11-03T13:24:38.164Z,127.90
2022-11-03T13:27:05.245Z,109.15
2022-11-03T13:29:35.453Z,147.85
2022-11-03T13:32:03.597Z,94.85
2022-11-03T13:34:30.680Z,130.05
2022-11-03T13:36:58.696Z,86.43
2022-11-03T13:39:25.851Z,100.65
2022-11-03T13:41:53.001Z,118.72
2022-11-03T13:44:20.236Z,97.82
2022-11-03T13:46:47.331Z,109.60
2022-11-03T13:52:02.802Z,105.68
2022-11-03T14:00:05.426Z,96.38
2022-11-03T14:05:20.450Z,101.88
2022-11-03T14:07:47.576Z,116.90
2022-11-03T14:10:14.649Z,96.45
2022-11-03T14:12:41.739Z,113.63
2022-11-03T14:15:09.111Z,128.20
2022-11-03T14:17:36.196Z,100.90
2022-11-03T14:20:04.773Z,178.80
2022-11-03T14:22:32.492Z,147.35
2022-11-03T14:25:00.177Z,141.68
2022-11-03T14:27:27.616Z,115.30
2022-11-03T14:29:55.018Z,130.93
2022-11-03T14:32:22.207Z,103.18
2022-11-03T14:34:49.325Z,124.55
2022-11-03T14:37:16.604Z,119.05
2022-11-03T14:39:44.158Z,123.65
2022-11-03T14:42:15.361Z,139.57
2022-11-03T14:44:43.068Z,153.77
2022-11-03T14:47:10.495Z,134.63
2022-11-03T14:49:37.590Z,156.00
2022-11-03T14:52:05.082Z,142.65
2022-11-03T14:54:32.377Z,101.60
2022-11-03T14:56:59.780Z,103.90
2022-11-03T15:00:16.591Z,101.25
2022-11-03T15:02:43.666Z,96.25
2022-11-03T15:05:30.709Z,104.15
2022-11-03T15:07:57.915Z,98.75
2022-11-03T15:10:24.977Z,89.95
2022-11-03T15:12:52.050Z,74.50
2022-11-03T15:15:19.148Z,82.75
2022-11-03T15:17:46.321Z,99.10
2022-11-03T15:20:13.496Z,81.30
2022-11-03T15:25:30.254Z,78.07
2022-11-03T15:28:00.665Z,84.70
2022-11-03T15:30:27.981Z,58.47
2022-11-03T15:32:56.490Z,83.50
2022-11-03T15:35:23.644Z,84.22
2022-11-03T15:37:50.752Z,55.60
2022-11-03T15:40:17.812Z,77.88
2022-11-03T15:42:44.872Z,69.45
2022-11-03T15:45:11.932Z,56.65
2022-11-03T15:47:39.203Z,61.60
2022-11-03T15:50:06.558Z,62.20
2022-11-03T15:52:33.662Z,59.22
2022-11-03T15:55:00.733Z,54.45
2022-11-03T15:57:27.791Z,59.72
2022-11-03T15:59:57.753Z,61.63
2022-11-03T16:02:40.992Z,52.28
2022-11-03T16:05:08.738Z,50.05
2022-11-03T16:07:35.851Z,39.45
2022-11-03T16:10:02.951Z,58.63
2022-11-03T16:12:30.290Z,45.67
2022-11-03T16:14:57.353Z,37.55
2022-11-03T16:17:24.497Z,35.30
2022-11-03T16:19:51.564Z,61.17
2022-11-03T16:22:18.645Z,58.60
2022-11-03T16:24:48.544Z,50.63
2022-11-03T16:27:15.688Z,41.55
2022-11-03T16:29:42.832Z,40.75
2022-11-03T16:32:09.920Z,40.30
2022-11-03T16:34:36.990Z,35.80
2022-11-03T16:37:04.062Z,36.65
2022-11-03T16:39:31.276Z,43.08
2022-11-03T16:41:58.441Z,38.55
2022-11-03T16:44:25.564Z,40.25
2022-11-03T16:46:52.687Z,36.50
2022-11-03T16:49:19.818Z,33.72
2022-11-03T16:51:46.901Z,38.53
2022-11-03T16:54:13.997Z,34.45
2022-11-03T16:56:41.145Z,38.42
2022-11-03T16:59:08.224Z,31.30
2022-11-03T17:01:35.459Z,27.98
2022-11-03T17:04:02.689Z,36.05
2022-11-03T17:06:29.770Z,30.48
2022-11-03T17:08:56.832Z,29.02
2022-11-03T17:11:36.454Z,24.38
2022-11-03T17:14:03.675Z,26.65
2022-11-03T17:16:30.780Z,32.88
2022-11-03T17:18:58.566Z,35.08
2022-11-03T17:21:25.616Z,26.77
2022-11-03T17:23:52.686Z,25.15
2022-11-03T17:26:19.746Z,31.10
2022-11-03T17:28:46.810Z,24.52
2022-11-03T17:31:13.869Z,27.45
2022-11-03T17:33:40.988Z,26.10
2022-11-03T17:36:08.093Z,24.38
2022-11-03T17:38:35.150Z,22.52
2022-11-03T17:41:02.284Z,24.00
2022-11-03T17:43:31.129Z,25.38
2022-11-03T17:45:58.215Z,19.25
2022-11-03T17:48:25.347Z,21.90
2022-11-03T17:50:53.635Z,16.90
2022-11-03T17:53:21.100Z,27.83
2022-11-03T17:56:02.877Z,22.85
2022-11-03T17:58:35.349Z,24.58
2022-11-03T18:01:02.529Z,19.48
2022-11-03T18:03:30.234Z,19.55
2022-11-03T18:05:57.297Z,29.75
2022-11-03T18:08:24.393Z,21.60
2022-11-03T18:10:51.487Z,17.30
2022-11-03T18:13:18.677Z,18.00
2022-11-03T18:15:45.750Z,18.65
2022-11-03T18:18:13.207Z,20.90
2022-11-03T18:20:40.273Z,21.25
2022-11-03T18:23:07.345Z,19.20
2022-11-03T18:25:34.396Z,19.95
2022-11-03T18:28:01.602Z,16.88
2022-11-03T18:30:30.888Z,21.95
2022-11-03T18:32:58.022Z,22.15
2022-11-03T18:35:25.167Z,16.13
2022-11-03T18:37:52.239Z,17.42
2022-11-03T18:40:20.508Z,17.77
2022-11-03T18:42:47.626Z,17.95
2022-11-03T18:45:14.705Z,14.88
2022-11-03T18:47:41.908Z,15.77
2022-11-03T18:50:08.969Z,17.05
2022-11-03T18:52:36.037Z,14.15
2022-11-03T18:55:03.252Z,22.33
2022-11-03T18:57:30.405Z,16.98
2022-11-03T18:59:57.715Z,14.35
2022-11-03T19:02:26.385Z,12.98
2022-11-03T19:04:54.308Z,13.75
2022-11-03T19:07:21.433Z,10.10
2022-11-03T19:09:48.586Z,13.13
2022-11-03T19:12:15.699Z,17.63
2022-11-03T19:14:42.758Z,13.65
2022-11-03T19:17:23.037Z,16.55
2022-11-03T19:19:51.208Z,14.20
2022-11-03T19:22:18.309Z,15.57
2022-11-03T19:24:45.384Z,11.32
2022-11-03T19:27:12.458Z,16.38
2022-11-03T19:29:40.073Z,12.18
2022-11-03T19:32:07.210Z,13.77
2022-11-03T19:34:34.539Z,14.82
2022-11-03T19:37:01.602Z,11.13
2022-11-03T19:39:28.823Z,14.80
2022-11-03T19:42:14.864Z,12.00
2022-11-03T19:47:08.940Z,10.57
2022-11-03T19:49:35.990Z,9.93
2022-11-03T19:52:03.067Z,12.85
2022-11-03T19:54:30.134Z,14.70
2022-11-03T19:56:57.245Z,11.43
2022-11-03T19:59:24.370Z,9.88
2022-11-03T20:01:51.581Z,11.65
2022-11-03T20:04:18.776Z,11.70
2022-11-03T20:06:45.838Z,11.63
2022-11-03T20:09:12.901Z,15.35
2022-11-03T20:11:39.963Z,9.20
2022-11-03T20:14:07.096Z,11.30
2022-11-03T20:16:35.379Z,8.20
2022-11-03T20:19:03.279Z,11.50
2022-11-03T20:21:34.412Z,12.52
2022-11-03T20:24:01.708Z,12.02
2022-11-03T20:26:28.804Z,10.68
2022-11-03T20:28:55.875Z,10.82
2022-11-03T20:31:22.944Z,10.68
2022-11-03T20:33:50.006Z,15.00
2022-11-03T20:36:17.136Z,12.82
2022-11-03T20:38:44.201Z,20.48
2022-11-03T20:41:11.337Z,14.80
2022-11-03T20:43:38.427Z,10.88
2022-11-03T20:46:05.697Z,12.95
2022-11-03T20:48:32.886Z,11.48
2022-11-03T20:51:01.057Z,12.85
2022-11-03T20:53:28.172Z,10.65
2022-11-03T20:55:55.247Z,9.50
2022-11-03T20:58:22.317Z,11.25
2022-11-03T21:00:49.492Z,10.85
2022-11-03T21:03:31.288Z,9.70
2022-11-03T21:06:03.840Z,8.85
2022-11-03T21:08:30.988Z,8.52
2022-11-03T21:11:18.049Z,10.35
2022-11-03T21:13:45.130Z,8.68
2022-11-03T21:16:30.868Z,8.73
2022-11-03T21:19:16.770Z,10.00
2022-11-03T21:21:43.830Z,8.07
2022-11-03T21:24:10.914Z,10.13
2022-11-03T21:26:40.032Z,10.05
2022-11-03T21:29:07.101Z,9.57
2022-11-03T21:31:34.173Z,9.38
2022-11-03T21:34:01.235Z,9.30
2022-11-03T21:36:28.297Z,9.95
2022-11-03T21:38:55.429Z,10.23
2022-11-03T21:41:45.842Z,8.30
2022-11-03T21:44:15.754Z,8.10
2022-11-03T21:46:43.026Z,9.23
2022-11-03T21:49:29.160Z,10.80
2022-11-03T21:54:23.211Z,7.78
2022-11-03T21:56:50.325Z,8.07
2022-11-03T21:59:17.394Z,11.80
2022-11-03T22:01:44.548Z,10.43
2022-11-03T22:04:11.708Z,8.00
2022-11-03T22:06:38.764Z,11.13
2022-11-03T22:09:05.886Z,9.32
2022-11-03T22:11:32.948Z,9.40
2022-11-03T22:14:00.024Z,11.57
2022-11-03T22:16:39.433Z,8.05
2022-11-03T22:19:25.420Z,8.57
2022-11-03T22:22:11.005Z,8.82
2022-11-03T22:24:56.921Z,7.55
2022-11-03T22:27:23.982Z,7.32
2022-11-03T22:30:09.750Z,8.93
2022-11-03T22:32:36.817Z,9.52
2022-11-03T22:35:22.888Z,8.10
2022-11-03T22:40:35.762Z,8.10
2022-11-03T22:43:21.718Z,7.80
2022-11-03T22:45:51.575Z,8.25
2022-11-03T22:48:18.670Z,8.30
2022-11-03T22:50:45.782Z,8.73
2022-11-03T22:53:31.852Z,7.90
2022-11-03T22:58:30.268Z,6.43
2022-11-03T23:00:57.862Z,8.00
2022-11-03T23:03:24.965Z,8.00
2022-11-03T23:05:52.024Z,7.18
2022-11-03T23:08:19.216Z,8.40
2022-11-03T23:10:46.327Z,10.55
2022-11-03T23:13:13.418Z,8.05
2022-11-03T23:15:43.701Z,9.25
2022-11-03T23:18:29.329Z,9.48
2022-11-03T23:21:08.710Z,7.13
2022-11-03T23:23:54.575Z,7.65
2022-11-03T23:26:21.657Z,9.20
2022-11-03T23:28:48.761Z,9.50
2022-11-03T23:31:15.839Z,8.40
2022-11-03T23:33:42.971Z,6.57
2022-11-03T23:36:10.105Z,9.07
2022-11-03T23:38:37.178Z,7.05
2022-11-03T23:41:04.284Z,7.70
2022-11-03T23:43:31.365Z,7.20
2022-11-03T23:46:17.229Z,6.63
2022-11-03T23:48:47.466Z,6.70
2022-11-03T23:51:15.189Z,6.80
2022-11-03T23:53:42.349Z,7.20
2022-11-03T23:56:27.952Z,8.45
2022-11-03T23:58:55.073Z,7.25
